sensor_id;sensor_type;location;lat;lon;timestamp;P1;durP1;ratioP1;P2;durP2;ratioP2
22648;SDS011;11491;41.942;24.220;2024-01-25T00:00:30;59.22;;;29.80;;
22648;SDS011;11491;41.942;24.220;2024-01-25T00:02:57;46.03;;;22.05;;
22648;SDS011;11491;41.942;24.220;2024-01-25T00:05:24;60.85;;;31.98;;
22648;SDS011;11491;41.942;24.220;2024-01-25T00:07:52;74.72;;;41.60;;
22648;SDS011;11491;41.942;24.220;2024-01-25T00:10:19;80.38;;;41.58;;
22648;SDS011;11491;41.942;24.220;2024-01-25T00:12:45;85.10;;;43.83;;
22648;SDS011;11491;41.942;24.220;2024-01-25T00:15:12;71.45;;;39.40;;
22648;SDS011;11491;41.942;24.220;2024-01-25T00:17:39;94.10;;;47.53;;
22648;SDS011;11491;41.942;24.220;2024-01-25T00:20:06;84.47;;;47.47;;
22648;SDS011;11491;41.942;24.220;2024-01-25T00:22:36;85.53;;;44.30;;
22648;SDS011;11491;41.942;24.220;2024-01-25T00:25:04;87.20;;;46.03;;
22648;SDS011;11491;41.942;24.220;2024-01-25T00:27:31;84.63;;;44.28;;
22648;SDS011;11491;41.942;24.220;2024-01-25T00:29:58;84.72;;;44.13;;
22648;SDS011;11491;41.942;24.220;2024-01-25T00:32:25;88.82;;;46.78;;
22648;SDS011;11491;41.942;24.220;2024-01-25T00:34:52;93.45;;;47.75;;
22648;SDS011;11491;41.942;24.220;2024-01-25T00:37:19;48.10;;;22.80;;
22648;SDS011;11491;41.942;24.220;2024-01-25T00:39:47;89.35;;;43.92;;
22648;SDS011;11491;41.942;24.220;2024-01-25T00:42:17;93.47;;;46.28;;
22648;SDS011;11491;41.942;24.220;2024-01-25T00:44:48;100.35;;;49.92;;
22648;SDS011;11491;41.942;24.220;2024-01-25T00:47:15;89.53;;;48.70;;
22648;SDS011;11491;41.942;24.220;2024-01-25T00:49:43;122.45;;;62.40;;
22648;SDS011;11491;41.942;24.220;2024-01-25T00:52:10;96.72;;;52.35;;
22648;SDS011;11491;41.942;24.220;2024-01-25T00:54:38;92.20;;;51.38;;
22648;SDS011;11491;41.942;24.220;2024-01-25T00:57:05;83.93;;;46.67;;
22648;SDS011;11491;41.942;24.220;2024-01-25T00:59:35;82.03;;;42.78;;
22648;SDS011;11491;41.942;24.220;2024-01-25T01:02:02;95.43;;;47.05;;
22648;SDS011;11491;41.942;24.220;2024-01-25T01:04:31;97.88;;;51.42;;
22648;SDS011;11491;41.942;24.220;2024-01-25T01:06:58;85.47;;;43.50;;
22648;SDS011;11491;41.942;24.220;2024-01-25T01:09:26;74.28;;;40.15;;
22648;SDS011;11491;41.942;24.220;2024-01-25T01:11:52;63.88;;;34.28;;
22648;SDS011;11491;41.942;24.220;2024-01-25T01:14:19;73.90;;;37.45;;
22648;SDS011;11491;41.942;24.220;2024-01-25T01:16:47;62.30;;;32.63;;
22648;SDS011;11491;41.942;24.220;2024-01-25T01:19:15;77.78;;;42.13;;
22648;SDS011;11491;41.942;24.220;2024-01-25T01:21:42;92.97;;;49.22;;
22648;SDS011;11491;41.942;24.220;2024-01-25T01:24:09;138.55;;;68.47;;
22648;SDS011;11491;41.942;24.220;2024-01-25T01:26:36;93.03;;;48.40;;
22648;SDS011;11491;41.942;24.220;2024-01-25T01:29:03;106.60;;;54.65;;
22648;SDS011;11491;41.942;24.220;2024-01-25T01:31:30;125.07;;;62.40;;
22648;SDS011;11491;41.942;24.220;2024-01-25T01:33:57;126.63;;;64.00;;
22648;SDS011;11491;41.942;24.220;2024-01-25T01:36:24;106.68;;;54.80;;
22648;SDS011;11491;41.942;24.220;2024-01-25T01:38:50;72.03;;;39.63;;
22648;SDS011;11491;41.942;24.220;2024-01-25T01:41:17;31.13;;;16.17;;
22648;SDS011;11491;41.942;24.220;2024-01-25T01:43:44;87.30;;;45.53;;
22648;SDS011;11491;41.942;24.220;2024-01-25T01:46:12;99.40;;;49.17;;
22648;SDS011;11491;41.942;24.220;2024-01-25T01:48:46;95.05;;;52.38;;
22648;SDS011;11491;41.942;24.220;2024-01-25T01:51:15;96.40;;;48.55;;
22648;SDS011;11491;41.942;24.220;2024-01-25T01:53:42;80.53;;;42.78;;
22648;SDS011;11491;41.942;24.220;2024-01-25T01:56:09;71.75;;;38.28;;
22648;SDS011;11491;41.942;24.220;2024-01-25T01:58:36;62.42;;;34.35;;
22648;SDS011;11491;41.942;24.220;2024-01-25T02:01:03;75.07;;;40.35;;
22648;SDS011;11491;41.942;24.220;2024-01-25T02:03:31;59.15;;;31.40;;
22648;SDS011;11491;41.942;24.220;2024-01-25T02:05:57;69.50;;;38.17;;
22648;SDS011;11491;41.942;24.220;2024-01-25T02:08:29;64.00;;;33.03;;
22648;SDS011;11491;41.942;24.220;2024-01-25T02:10:56;68.63;;;38.45;;
22648;SDS011;11491;41.942;24.220;2024-01-25T02:13:22;70.63;;;39.85;;
22648;SDS011;11491;41.942;24.220;2024-01-25T02:15:49;64.80;;;34.65;;
22648;SDS011;11491;41.942;24.220;2024-01-25T02:18:16;68.95;;;37.30;;
22648;SDS011;11491;41.942;24.220;2024-01-25T02:20:42;72.10;;;38.53;;
22648;SDS011;11491;41.942;24.220;2024-01-25T02:23:10;64.72;;;34.65;;
22648;SDS011;11491;41.942;24.220;2024-01-25T02:25:37;69.97;;;35.60;;
22648;SDS011;11491;41.942;24.220;2024-01-25T02:28:04;68.00;;;37.28;;
22648;SDS011;11491;41.942;24.220;2024-01-25T02:30:32;54.65;;;29.27;;
22648;SDS011;11491;41.942;24.220;2024-01-25T02:32:58;67.93;;;34.10;;
22648;SDS011;11491;41.942;24.220;2024-01-25T02:35:25;60.25;;;32.33;;
22648;SDS011;11491;41.942;24.220;2024-01-25T02:37:52;58.88;;;30.58;;
22648;SDS011;11491;41.942;24.220;2024-01-25T02:40:20;53.78;;;26.83;;
22648;SDS011;11491;41.942;24.220;2024-01-25T02:42:47;51.38;;;28.38;;
22648;SDS011;11491;41.942;24.220;2024-01-25T02:45:13;36.50;;;22.10;;
22648;SDS011;11491;41.942;24.220;2024-01-25T02:47:40;49.53;;;27.83;;
22648;SDS011;11491;41.942;24.220;2024-01-25T02:50:07;54.72;;;28.08;;
22648;SDS011;11491;41.942;24.220;2024-01-25T02:52:35;48.33;;;25.70;;
22648;SDS011;11491;41.942;24.220;2024-01-25T02:55:01;51.30;;;27.63;;
22648;SDS011;11491;41.942;24.220;2024-01-25T02:57:30;47.33;;;26.45;;
22648;SDS011;11491;41.942;24.220;2024-01-25T02:59:57;45.28;;;24.25;;
22648;SDS011;11491;41.942;24.220;2024-01-25T03:02:24;38.08;;;21.60;;
22648;SDS011;11491;41.942;24.220;2024-01-25T03:04:51;48.97;;;23.10;;
22648;SDS011;11491;41.942;24.220;2024-01-25T03:07:17;53.17;;;26.75;;
22648;SDS011;11491;41.942;24.220;2024-01-25T03:09:44;46.22;;;24.20;;
22648;SDS011;11491;41.942;24.220;2024-01-25T03:12:11;28.65;;;17.92;;
22648;SDS011;11491;41.942;24.220;2024-01-25T03:14:39;34.40;;;20.25;;
22648;SDS011;11491;41.942;24.220;2024-01-25T03:17:06;33.55;;;18.33;;
22648;SDS011;11491;41.942;24.220;2024-01-25T03:19:32;30.05;;;16.58;;
22648;SDS011;11491;41.942;24.220;2024-01-25T03:21:59;40.08;;;19.50;;
22648;SDS011;11491;41.942;24.220;2024-01-25T03:24:27;22.15;;;14.20;;
22648;SDS011;11491;41.942;24.220;2024-01-25T03:26:53;17.30;;;9.82;;
22648;SDS011;11491;41.942;24.220;2024-01-25T03:29:20;22.38;;;13.35;;
22648;SDS011;11491;41.942;24.220;2024-01-25T03:31:48;17.60;;;11.70;;
22648;SDS011;11491;41.942;24.220;2024-01-25T03:34:15;15.48;;;9.45;;
22648;SDS011;11491;41.942;24.220;2024-01-25T03:36:42;13.93;;;8.95;;
22648;SDS011;11491;41.942;24.220;2024-01-25T03:39:09;29.02;;;20.48;;
22648;SDS011;11491;41.942;24.220;2024-01-25T03:41:35;22.70;;;13.40;;
22648;SDS011;11491;41.942;24.220;2024-01-25T03:44:02;17.63;;;10.00;;
22648;SDS011;11491;41.942;24.220;2024-01-25T03:46:29;18.75;;;11.20;;
22648;SDS011;11491;41.942;24.220;2024-01-25T03:48:57;20.15;;;13.85;;
22648;SDS011;11491;41.942;24.220;2024-01-25T03:51:24;47.55;;;23.85;;
22648;SDS011;11491;41.942;24.220;2024-01-25T03:53:51;33.58;;;18.17;;
22648;SDS011;11491;41.942;24.220;2024-01-25T03:56:20;30.17;;;17.48;;
22648;SDS011;11491;41.942;24.220;2024-01-25T03:58:48;39.45;;;21.67;;
22648;SDS011;11491;41.942;24.220;2024-01-25T04:01:14;157.73;;;80.55;;
22648;SDS011;11491;41.942;24.220;2024-01-25T04:03:41;66.28;;;35.78;;
22648;SDS011;11491;41.942;24.220;2024-01-25T04:06:09;55.38;;;29.17;;
22648;SDS011;11491;41.942;24.220;2024-01-25T04:08:36;40.35;;;23.25;;
22648;SDS011;11491;41.942;24.220;2024-01-25T04:11:03;29.10;;;19.40;;
22648;SDS011;11491;41.942;24.220;2024-01-25T04:13:30;21.10;;;11.25;;
22648;SDS011;11491;41.942;24.220;2024-01-25T04:15:57;23.90;;;15.48;;
22648;SDS011;11491;41.942;24.220;2024-01-25T04:18:23;16.52;;;10.27;;
22648;SDS011;11491;41.942;24.220;2024-01-25T04:20:50;38.03;;;21.63;;
22648;SDS011;11491;41.942;24.220;2024-01-25T04:23:18;40.75;;;25.67;;
22648;SDS011;11491;41.942;24.220;2024-01-25T04:25:45;12.32;;;8.02;;
22648;SDS011;11491;41.942;24.220;2024-01-25T04:28:12;18.60;;;13.38;;
22648;SDS011;11491;41.942;24.220;2024-01-25T04:30:38;24.75;;;14.32;;
22648;SDS011;11491;41.942;24.220;2024-01-25T04:33:05;22.48;;;14.63;;
22648;SDS011;11491;41.942;24.220;2024-01-25T04:35:32;20.40;;;14.48;;
22648;SDS011;11491;41.942;24.220;2024-01-25T04:37:59;32.72;;;20.52;;
22648;SDS011;11491;41.942;24.220;2024-01-25T04:40:27;12.23;;;7.90;;
22648;SDS011;11491;41.942;24.220;2024-01-25T04:42:52;6.30;;;4.03;;
22648;SDS011;11491;41.942;24.220;2024-01-25T04:45:19;6.38;;;5.18;;
22648;SDS011;11491;41.942;24.220;2024-01-25T04:47:46;26.00;;;16.17;;
22648;SDS011;11491;41.942;24.220;2024-01-25T04:50:13;29.35;;;19.52;;
22648;SDS011;11491;41.942;24.220;2024-01-25T04:52:40;73.25;;;38.38;;
22648;SDS011;11491;41.942;24.220;2024-01-25T04:55:07;66.90;;;34.75;;
22648;SDS011;11491;41.942;24.220;2024-01-25T04:57:35;91.32;;;39.15;;
22648;SDS011;11491;41.942;24.220;2024-01-25T05:00:05;104.68;;;43.50;;
22648;SDS011;11491;41.942;24.220;2024-01-25T05:02:33;82.90;;;38.17;;
22648;SDS011;11491;41.942;24.220;2024-01-25T05:04:59;255.40;;;95.40;;
22648;SDS011;11491;41.942;24.220;2024-01-25T05:07:26;225.35;;;86.68;;
22648;SDS011;11491;41.942;24.220;2024-01-25T05:09:53;188.23;;;75.00;;
22648;SDS011;11491;41.942;24.220;2024-01-25T05:12:20;246.65;;;119.65;;
22648;SDS011;11491;41.942;24.220;2024-01-25T05:14:48;210.93;;;95.28;;
22648;SDS011;11491;41.942;24.220;2024-01-25T05:17:15;196.07;;;92.10;;
22648;SDS011;11491;41.942;24.220;2024-01-25T05:19:41;169.10;;;85.03;;
22648;SDS011;11491;41.942;24.220;2024-01-25T05:22:08;143.95;;;74.82;;
22648;SDS011;11491;41.942;24.220;2024-01-25T05:24:35;138.45;;;72.30;;
22648;SDS011;11491;41.942;24.220;2024-01-25T05:27:02;138.18;;;69.45;;
22648;SDS011;11491;41.942;24.220;2024-01-25T05:29:28;87.20;;;40.50;;
22648;SDS011;11491;41.942;24.220;2024-01-25T05:31:57;141.70;;;68.00;;
22648;SDS011;11491;41.942;24.220;2024-01-25T05:34:23;132.13;;;68.97;;
22648;SDS011;11491;41.942;24.220;2024-01-25T05:36:50;165.32;;;88.22;;
22648;SDS011;11491;41.942;24.220;2024-01-25T05:39:18;164.02;;;83.32;;
22648;SDS011;11491;41.942;24.220;2024-01-25T05:41:45;155.18;;;76.40;;
22648;SDS011;11491;41.942;24.220;2024-01-25T05:44:12;159.95;;;81.65;;
22648;SDS011;11491;41.942;24.220;2024-01-25T05:46:39;221.43;;;113.80;;
22648;SDS011;11491;41.942;24.220;2024-01-25T05:49:07;239.40;;;120.47;;
22648;SDS011;11491;41.942;24.220;2024-01-25T05:51:34;158.88;;;91.45;;
22648;SDS011;11491;41.942;24.220;2024-01-25T05:54:01;198.25;;;109.53;;
22648;SDS011;11491;41.942;24.220;2024-01-25T05:56:28;104.60;;;60.35;;
22648;SDS011;11491;41.942;24.220;2024-01-25T05:58:55;109.05;;;65.07;;
22648;SDS011;11491;41.942;24.220;2024-01-25T06:01:21;82.15;;;49.38;;
22648;SDS011;11491;41.942;24.220;2024-01-25T06:03:48;81.18;;;47.53;;
22648;SDS011;11491;41.942;24.220;2024-01-25T06:06:16;85.28;;;53.63;;
22648;SDS011;11491;41.942;24.220;2024-01-25T06:08:43;80.07;;;51.03;;
22648;SDS011;11491;41.942;24.220;2024-01-25T06:11:10;64.50;;;44.50;;
22648;SDS011;11491;41.942;24.220;2024-01-25T06:13:36;54.50;;;35.67;;
22648;SDS011;11491;41.942;24.220;2024-01-25T06:16:03;52.65;;;35.28;;
22648;SDS011;11491;41.942;24.220;2024-01-25T06:18:30;89.05;;;49.78;;
22648;SDS011;11491;41.942;24.220;2024-01-25T06:20:57;73.00;;;41.58;;
22648;SDS011;11491;41.942;24.220;2024-01-25T06:23:26;40.42;;;25.45;;
22648;SDS011;11491;41.942;24.220;2024-01-25T06:25:52;32.05;;;21.58;;
22648;SDS011;11491;41.942;24.220;2024-01-25T06:28:19;25.52;;;16.35;;
22648;SDS011;11491;41.942;24.220;2024-01-25T06:30:46;55.92;;;35.50;;
22648;SDS011;11491;41.942;24.220;2024-01-25T06:33:13;53.90;;;34.85;;
22648;SDS011;11491;41.942;24.220;2024-01-25T06:35:40;73.50;;;46.90;;
22648;SDS011;11491;41.942;24.220;2024-01-25T06:38:06;74.88;;;49.45;;
22648;SDS011;11491;41.942;24.220;2024-01-25T06:40:34;108.85;;;74.05;;
22648;SDS011;11491;41.942;24.220;2024-01-25T06:43:01;106.97;;;72.15;;
22648;SDS011;11491;41.942;24.220;2024-01-25T06:45:29;100.38;;;63.45;;
22648;SDS011;11491;41.942;24.220;2024-01-25T06:47:55;146.15;;;92.93;;
22648;SDS011;11491;41.942;24.220;2024-01-25T06:50:22;145.52;;;84.10;;
22648;SDS011;11491;41.942;24.220;2024-01-25T06:52:49;114.70;;;63.00;;
22648;SDS011;11491;41.942;24.220;2024-01-25T06:55:18;154.85;;;81.78;;
22648;SDS011;11491;41.942;24.220;2024-01-25T06:57:47;261.55;;;111.63;;
22648;SDS011;11491;41.942;24.220;2024-01-25T07:00:14;260.13;;;109.32;;
22648;SDS011;11491;41.942;24.220;2024-01-25T07:02:41;262.70;;;112.72;;
22648;SDS011;11491;41.942;24.220;2024-01-25T07:05:09;269.30;;;110.97;;
22648;SDS011;11491;41.942;24.220;2024-01-25T07:07:36;174.77;;;79.03;;
22648;SDS011;11491;41.942;24.220;2024-01-25T07:10:05;96.47;;;47.38;;
22648;SDS011;11491;41.942;24.220;2024-01-25T07:12:32;22.95;;;14.55;;
22648;SDS011;11491;41.942;24.220;2024-01-25T07:15:00;15.40;;;10.75;;
22648;SDS011;11491;41.942;24.220;2024-01-25T07:17:28;17.83;;;9.90;;
22648;SDS011;11491;41.942;24.220;2024-01-25T07:19:55;38.90;;;24.35;;
22648;SDS011;11491;41.942;24.220;2024-01-25T07:22:21;21.85;;;13.27;;
22648;SDS011;11491;41.942;24.220;2024-01-25T07:24:48;30.13;;;15.82;;
22648;SDS011;11491;41.942;24.220;2024-01-25T07:27:15;113.85;;;63.75;;
22648;SDS011;11491;41.942;24.220;2024-01-25T07:29:43;60.78;;;32.85;;
22648;SDS011;11491;41.942;24.220;2024-01-25T07:32:12;79.68;;;41.30;;
22648;SDS011;11491;41.942;24.220;2024-01-25T07:34:39;227.02;;;117.93;;
22648;SDS011;11491;41.942;24.220;2024-01-25T07:37:05;73.55;;;43.05;;
22648;SDS011;11491;41.942;24.220;2024-01-25T07:39:32;170.20;;;98.55;;
22648;SDS011;11491;41.942;24.220;2024-01-25T07:41:59;11.57;;;7.68;;
22648;SDS011;11491;41.942;24.220;2024-01-25T07:44:25;17.85;;;10.85;;
22648;SDS011;11491;41.942;24.220;2024-01-25T07:46:53;14.40;;;7.13;;
22648;SDS011;11491;41.942;24.220;2024-01-25T07:49:21;7.18;;;3.88;;
22648;SDS011;11491;41.942;24.220;2024-01-25T07:51:47;25.40;;;16.58;;
22648;SDS011;11491;41.942;24.220;2024-01-25T07:54:14;10.52;;;5.85;;
22648;SDS011;11491;41.942;24.220;2024-01-25T07:56:41;5.95;;;3.40;;
22648;SDS011;11491;41.942;24.220;2024-01-25T07:59:07;2.75;;;1.48;;
22648;SDS011;11491;41.942;24.220;2024-01-25T08:01:35;7.15;;;3.78;;
22648;SDS011;11491;41.942;24.220;2024-01-25T08:04:01;8.43;;;4.03;;
22648;SDS011;11491;41.942;24.220;2024-01-25T08:06:29;15.65;;;9.00;;
22648;SDS011;11491;41.942;24.220;2024-01-25T08:08:56;34.45;;;23.25;;
22648;SDS011;11491;41.942;24.220;2024-01-25T08:11:23;33.90;;;22.02;;
22648;SDS011;11491;41.942;24.220;2024-01-25T08:13:50;40.25;;;26.75;;
22648;SDS011;11491;41.942;24.220;2024-01-25T08:16:17;11.80;;;8.02;;
22648;SDS011;11491;41.942;24.220;2024-01-25T08:18:44;39.28;;;23.40;;
22648;SDS011;11491;41.942;24.220;2024-01-25T08:21:11;18.52;;;9.25;;
22648;SDS011;11491;41.942;24.220;2024-01-25T08:23:40;5.18;;;3.15;;
22648;SDS011;11491;41.942;24.220;2024-01-25T08:26:07;20.85;;;9.35;;
22648;SDS011;11491;41.942;24.220;2024-01-25T08:28:34;14.00;;;8.15;;
22648;SDS011;11491;41.942;24.220;2024-01-25T08:31:02;28.00;;;17.38;;
22648;SDS011;11491;41.942;24.220;2024-01-25T08:33:30;10.02;;;5.78;;
22648;SDS011;11491;41.942;24.220;2024-01-25T08:35:56;4.18;;;2.90;;
22648;SDS011;11491;41.942;24.220;2024-01-25T08:38:23;6.05;;;2.70;;
22648;SDS011;11491;41.942;24.220;2024-01-25T08:40:51;5.53;;;2.92;;
22648;SDS011;11491;41.942;24.220;2024-01-25T08:43:18;8.20;;;6.40;;
22648;SDS011;11491;41.942;24.220;2024-01-25T08:45:45;25.77;;;18.00;;
22648;SDS011;11491;41.942;24.220;2024-01-25T08:48:11;16.40;;;10.70;;
22648;SDS011;11491;41.942;24.220;2024-01-25T08:50:38;6.18;;;4.40;;
22648;SDS011;11491;41.942;24.220;2024-01-25T08:53:05;10.45;;;7.03;;
22648;SDS011;11491;41.942;24.220;2024-01-25T08:55:32;34.58;;;23.20;;
22648;SDS011;11491;41.942;24.220;2024-01-25T08:58:00;23.40;;;15.85;;
22648;SDS011;11491;41.942;24.220;2024-01-25T09:00:27;21.50;;;15.95;;
22648;SDS011;11491;41.942;24.220;2024-01-25T09:02:54;8.45;;;5.45;;
22648;SDS011;11491;41.942;24.220;2024-01-25T09:05:20;14.07;;;11.25;;
22648;SDS011;11491;41.942;24.220;2024-01-25T09:07:47;16.33;;;12.52;;
22648;SDS011;11491;41.942;24.220;2024-01-25T09:10:15;41.17;;;29.77;;
22648;SDS011;11491;41.942;24.220;2024-01-25T09:12:42;45.25;;;33.15;;
22648;SDS011;11491;41.942;24.220;2024-01-25T09:15:10;17.17;;;11.82;;
22648;SDS011;11491;41.942;24.220;2024-01-25T09:17:37;11.93;;;6.82;;
22648;SDS011;11491;41.942;24.220;2024-01-25T09:20:04;22.85;;;15.82;;
22648;SDS011;11491;41.942;24.220;2024-01-25T09:22:33;16.75;;;10.98;;
22648;SDS011;11491;41.942;24.220;2024-01-25T09:24:59;17.08;;;10.60;;
22648;SDS011;11491;41.942;24.220;2024-01-25T09:27:26;14.18;;;10.00;;
22648;SDS011;11491;41.942;24.220;2024-01-25T09:29:53;14.05;;;8.20;;
22648;SDS011;11491;41.942;24.220;2024-01-25T09:32:21;15.25;;;9.70;;
22648;SDS011;11491;41.942;24.220;2024-01-25T09:34:48;10.93;;;8.23;;
22648;SDS011;11491;41.942;24.220;2024-01-25T09:37:15;12.32;;;7.05;;
22648;SDS011;11491;41.942;24.220;2024-01-25T09:39:42;8.23;;;4.53;;
22648;SDS011;11491;41.942;24.220;2024-01-25T09:42:09;25.30;;;13.48;;
22648;SDS011;11491;41.942;24.220;2024-01-25T09:44:37;35.65;;;18.52;;
22648;SDS011;11491;41.942;24.220;2024-01-25T09:47:05;25.17;;;14.90;;
22648;SDS011;11491;41.942;24.220;2024-01-25T09:49:33;20.33;;;10.88;;
22648;SDS011;11491;41.942;24.220;2024-01-25T09:52:01;9.57;;;6.10;;
22648;SDS011;11491;41.942;24.220;2024-01-25T09:54:30;18.42;;;11.50;;
22648;SDS011;11491;41.942;24.220;2024-01-25T09:56:59;22.08;;;12.27;;
22648;SDS011;11491;41.942;24.220;2024-01-25T09:59:26;13.32;;;7.93;;
22648;SDS011;11491;41.942;24.220;2024-01-25T10:01:54;12.25;;;6.50;;
22648;SDS011;11491;41.942;24.220;2024-01-25T10:04:21;15.73;;;7.88;;
22648;SDS011;11491;41.942;24.220;2024-01-25T10:06:50;16.02;;;9.10;;
22648;SDS011;11491;41.942;24.220;2024-01-25T10:09:20;8.60;;;3.63;;
22648;SDS011;11491;41.942;24.220;2024-01-25T10:11:47;9.25;;;5.20;;
22648;SDS011;11491;41.942;24.220;2024-01-25T10:14:14;23.65;;;15.73;;
22648;SDS011;11491;41.942;24.220;2024-01-25T10:16:41;12.70;;;7.30;;
22648;SDS011;11491;41.942;24.220;2024-01-25T10:19:08;10.50;;;5.25;;
22648;SDS011;11491;41.942;24.220;2024-01-25T10:21:35;24.60;;;13.95;;
22648;SDS011;11491;41.942;24.220;2024-01-25T10:24:03;30.73;;;18.50;;
22648;SDS011;11491;41.942;24.220;2024-01-25T10:26:33;9.90;;;4.22;;
22648;SDS011;11491;41.942;24.220;2024-01-25T10:29:01;11.60;;;6.28;;
22648;SDS011;11491;41.942;24.220;2024-01-25T10:31:29;13.45;;;6.53;;
22648;SDS011;11491;41.942;24.220;2024-01-25T10:33:56;6.07;;;3.05;;
22648;SDS011;11491;41.942;24.220;2024-01-25T10:36:23;8.35;;;3.80;;
22648;SDS011;11491;41.942;24.220;2024-01-25T10:38:52;10.88;;;6.57;;
22648;SDS011;11491;41.942;24.220;2024-01-25T10:41:22;6.13;;;4.25;;
22648;SDS011;11491;41.942;24.220;2024-01-25T10:43:50;9.88;;;5.32;;
22648;SDS011;11491;41.942;24.220;2024-01-25T10:46:17;10.43;;;7.32;;
22648;SDS011;11491;41.942;24.220;2024-01-25T10:48:44;6.38;;;3.25;;
22648;SDS011;11491;41.942;24.220;2024-01-25T10:51:12;7.10;;;4.20;;
22648;SDS011;11491;41.942;24.220;2024-01-25T10:53:43;9.52;;;4.03;;
22648;SDS011;11491;41.942;24.220;2024-01-25T10:56:11;5.68;;;3.10;;
22648;SDS011;11491;41.942;24.220;2024-01-25T10:58:41;14.23;;;8.25;;
22648;SDS011;11491;41.942;24.220;2024-01-25T11:01:08;10.82;;;5.60;;
22648;SDS011;11491;41.942;24.220;2024-01-25T11:03:38;12.82;;;6.80;;
22648;SDS011;11491;41.942;24.220;2024-01-25T11:06:06;5.15;;;2.55;;
22648;SDS011;11491;41.942;24.220;2024-01-25T11:08:34;14.50;;;8.57;;
22648;SDS011;11491;41.942;24.220;2024-01-25T11:11:03;20.40;;;14.25;;
22648;SDS011;11491;41.942;24.220;2024-01-25T11:13:32;9.40;;;4.72;;
22648;SDS011;11491;41.942;24.220;2024-01-25T11:16:02;12.85;;;6.00;;
22648;SDS011;11491;41.942;24.220;2024-01-25T11:18:46;12.68;;;7.63;;
22648;SDS011;11491;41.942;24.220;2024-01-25T11:21:21;8.52;;;4.40;;
22648;SDS011;11491;41.942;24.220;2024-01-25T11:23:48;9.98;;;5.57;;
22648;SDS011;11491;41.942;24.220;2024-01-25T11:26:15;14.23;;;5.97;;
22648;SDS011;11491;41.942;24.220;2024-01-25T11:28:42;13.73;;;8.13;;
22648;SDS011;11491;41.942;24.220;2024-01-25T11:31:11;5.40;;;3.30;;
22648;SDS011;11491;41.942;24.220;2024-01-25T11:33:38;4.25;;;2.13;;
22648;SDS011;11491;41.942;24.220;2024-01-25T11:36:06;5.88;;;3.03;;
22648;SDS011;11491;41.942;24.220;2024-01-25T11:38:33;8.45;;;5.00;;
22648;SDS011;11491;41.942;24.220;2024-01-25T11:41:02;15.07;;;7.40;;
22648;SDS011;11491;41.942;24.220;2024-01-25T11:43:29;32.45;;;19.23;;
22648;SDS011;11491;41.942;24.220;2024-01-25T11:45:56;23.00;;;14.82;;
22648;SDS011;11491;41.942;24.220;2024-01-25T11:48:26;7.53;;;4.63;;
22648;SDS011;11491;41.942;24.220;2024-01-25T11:50:53;12.63;;;6.70;;
22648;SDS011;11491;41.942;24.220;2024-01-25T11:53:20;10.48;;;5.72;;
22648;SDS011;11491;41.942;24.220;2024-01-25T11:55:46;6.93;;;4.78;;
22648;SDS011;11491;41.942;24.220;2024-01-25T11:58:13;9.85;;;5.13;;
22648;SDS011;11491;41.942;24.220;2024-01-25T12:00:40;6.05;;;2.60;;
22648;SDS011;11491;41.942;24.220;2024-01-25T12:03:07;6.72;;;3.47;;
22648;SDS011;11491;41.942;24.220;2024-01-25T12:05:36;7.22;;;4.63;;
22648;SDS011;11491;41.942;24.220;2024-01-25T12:08:07;7.63;;;5.88;;
22648;SDS011;11491;41.942;24.220;2024-01-25T12:10:35;8.43;;;4.10;;
22648;SDS011;11491;41.942;24.220;2024-01-25T12:13:01;7.82;;;3.58;;
22648;SDS011;11491;41.942;24.220;2024-01-25T12:15:33;12.73;;;7.07;;
22648;SDS011;11491;41.942;24.220;2024-01-25T12:18:00;14.90;;;9.45;;
22648;SDS011;11491;41.942;24.220;2024-01-25T12:20:27;3.95;;;2.28;;
22648;SDS011;11491;41.942;24.220;2024-01-25T12:22:56;9.13;;;5.20;;
22648;SDS011;11491;41.942;24.220;2024-01-25T12:25:24;11.70;;;5.65;;
22648;SDS011;11491;41.942;24.220;2024-01-25T12:27:51;10.00;;;4.07;;
22648;SDS011;11491;41.942;24.220;2024-01-25T12:30:19;14.65;;;7.20;;
22648;SDS011;11491;41.942;24.220;2024-01-25T12:32:47;10.55;;;3.28;;
22648;SDS011;11491;41.942;24.220;2024-01-25T12:35:14;10.85;;;5.05;;
22648;SDS011;11491;41.942;24.220;2024-01-25T12:37:42;59.17;;;29.38;;
22648;SDS011;11491;41.942;24.220;2024-01-25T12:40:10;76.10;;;41.40;;
22648;SDS011;11491;41.942;24.220;2024-01-25T12:42:38;20.33;;;12.77;;
22648;SDS011;11491;41.942;24.220;2024-01-25T12:45:05;14.02;;;7.60;;
22648;SDS011;11491;41.942;24.220;2024-01-25T12:47:32;16.50;;;9.50;;
22648;SDS011;11491;41.942;24.220;2024-01-25T12:49:59;20.42;;;12.40;;
22648;SDS011;11491;41.942;24.220;2024-01-25T12:52:26;19.33;;;11.00;;
22648;SDS011;11491;41.942;24.220;2024-01-25T12:54:52;10.90;;;7.25;;
22648;SDS011;11491;41.942;24.220;2024-01-25T12:57:21;15.00;;;8.32;;
22648;SDS011;11491;41.942;24.220;2024-01-25T12:59:48;22.38;;;12.10;;
22648;SDS011;11491;41.942;24.220;2024-01-25T13:02:15;15.25;;;10.25;;
22648;SDS011;11491;41.942;24.220;2024-01-25T13:04:42;12.55;;;6.60;;
22648;SDS011;11491;41.942;24.220;2024-01-25T13:07:09;13.25;;;7.28;;
22648;SDS011;11491;41.942;24.220;2024-01-25T13:09:36;5.97;;;3.58;;
22648;SDS011;11491;41.942;24.220;2024-01-25T13:12:02;17.15;;;8.80;;
22648;SDS011;11491;41.942;24.220;2024-01-25T13:14:31;25.60;;;12.20;;
22648;SDS011;11491;41.942;24.220;2024-01-25T13:16:58;39.75;;;21.77;;
22648;SDS011;11491;41.942;24.220;2024-01-25T13:19:25;48.40;;;25.30;;
22648;SDS011;11491;41.942;24.220;2024-01-25T13:21:52;33.17;;;16.80;;
22648;SDS011;11491;41.942;24.220;2024-01-25T13:24:18;42.13;;;20.17;;
22648;SDS011;11491;41.942;24.220;2024-01-25T13:26:45;20.08;;;12.25;;
22648;SDS011;11491;41.942;24.220;2024-01-25T13:29:12;41.42;;;20.17;;
22648;SDS011;11491;41.942;24.220;2024-01-25T13:31:40;49.55;;;28.27;;
22648;SDS011;11491;41.942;24.220;2024-01-25T13:34:07;18.48;;;10.65;;
22648;SDS011;11491;41.942;24.220;2024-01-25T13:36:34;8.23;;;4.22;;
22648;SDS011;11491;41.942;24.220;2024-01-25T13:39:00;16.95;;;10.02;;
22648;SDS011;11491;41.942;24.220;2024-01-25T13:41:28;5.10;;;2.20;;
22648;SDS011;11491;41.942;24.220;2024-01-25T13:43:55;8.02;;;4.40;;
22648;SDS011;11491;41.942;24.220;2024-01-25T13:46:22;19.63;;;9.93;;
22648;SDS011;11491;41.942;24.220;2024-01-25T13:48:50;22.58;;;12.20;;
22648;SDS011;11491;41.942;24.220;2024-01-25T13:51:17;10.50;;;5.28;;
22648;SDS011;11491;41.942;24.220;2024-01-25T13:53:43;9.40;;;6.22;;
22648;SDS011;11491;41.942;24.220;2024-01-25T13:56:11;13.05;;;8.00;;
22648;SDS011;11491;41.942;24.220;2024-01-25T13:58:37;44.72;;;24.65;;
22648;SDS011;11491;41.942;24.220;2024-01-25T14:01:04;25.92;;;15.13;;
22648;SDS011;11491;41.942;24.220;2024-01-25T14:03:31;20.58;;;14.40;;
22648;SDS011;11491;41.942;24.220;2024-01-25T14:05:59;11.48;;;9.38;;
22648;SDS011;11491;41.942;24.220;2024-01-25T14:08:29;13.13;;;10.55;;
22648;SDS011;11491;41.942;24.220;2024-01-25T14:10:56;8.77;;;6.65;;
22648;SDS011;11491;41.942;24.220;2024-01-25T14:13:22;6.45;;;4.43;;